Latest Weather Observations for Warwick

IDQ60901

Issued at 9:01 am EST Wednesday 19 June 2019 (issued every 10 minutes, with the page automatically refreshed every 10 minutes)

About weather observations | Map of Brisbane area stations | Latest observations for Brisbane area | Other Formats
Station Details ID: 041525 Name: WARWICK Lat: -28.21 Lon: 152.10 Height: 475.4 m
Data from the previous 72 hours. | See also: Recent months at Warwick
Date/Time
EST
Temp
°C
App
Temp
°C
Dew
Point
°C
Rel
Hum
%
Delta-T
°C
Wind Press
QNH
hPa
Press
MSL
hPa
Rain since
9am
mm
Dir  Spd
km/h
Gust
km/h
Spd
kts
Gust
kts
19/09:00am 9.2 8.0 6.5 83 1.3 ENE 2 7 1 4 1020.3 1020.1 0.0
19/08:30am 6.0 5.0 5.7 98 0.1 CALM 0 0 0 0 1020.2 1020.0 0.0
19/08:00am 3.0 1.5 2.9 99 0.0 CALM 0 0 0 0 1020.1 1019.9 0.0
19/07:30am 1.2 -0.6 1.1 99 0.0 CALM 0 0 0 0 1019.8 1019.6 0.0
19/07:00am 0.4 -1.5 0.3 99 0.0 CALM 0 0 0 0 1019.5 1019.3 0.0
19/06:30am -0.2 -2.3 -0.8 96 0.2 CALM 0 0 0 0 1018.8 1018.6 0.0
19/06:00am 2.1 0.4 2.0 99 0.0 CALM 0 0 0 0 1018.5 1018.3 0.0
19/05:30am 2.7 1.1 2.6 99 0.0 CALM 0 0 0 0 1018.3 1018.1 0.0
19/05:00am 2.5 0.9 2.4 99 0.0 CALM 0 0 0 0 1017.9 1017.7 0.0
19/04:30am 2.2 0.5 2.1 99 0.0 CALM 0 0 0 0 1017.9 1017.7 0.0
19/04:00am 1.9 0.2 1.8 99 0.0 CALM 0 0 0 0 1017.8 1017.6 0.0
19/03:30am 2.8 1.2 2.7 99 0.0 CALM 0 0 0 0 1018.0 1017.8 0.0
19/03:00am 3.4 1.9 3.0 97 0.2 CALM 0 0 0 0 1018.1 1017.9 0.0
19/02:30am 4.3 2.9 3.7 96 0.3 CALM 0 0 0 0 1018.0 1017.8 0.0
19/02:00am 4.6 3.3 4.2 97 0.2 CALM 0 0 0 0 1018.2 1018.0 0.0
19/01:30am 4.8 3.5 3.9 94 0.4 CALM 0 0 0 0 1018.4 1018.2 0.0
19/01:00am 5.0 3.7 4.3 95 0.3 CALM 0 0 0 0 1018.5 1018.3 0.0
19/12:30am 5.2 3.8 3.7 90 0.6 CALM 0 0 0 0 1018.5 1018.3 0.0
19/12:00am 4.8 3.3 2.8 87 0.8 CALM 0 0 0 0 1018.7 1018.5 0.0
 
Date/Time
EST
Temp
°C
App
Temp
°C
Dew
Point
°C
Rel
Hum
%
Delta-T
°C
Wind Press
QNH
hPa
Press
MSL
hPa
Rain since
9am
mm
Dir  Spd
km/h
Gust
km/h
Spd
kts
Gust
kts
18/11:30pm 5.6 4.1 2.9 83 1.1 CALM 0 0 0 0 1018.6 1018.4 0.0
18/11:00pm 6.5 4.4 3.7 82 1.2 NE 4 7 2 4 1018.6 1018.4 0.0
18/10:30pm 6.6 4.6 2.3 74 1.8 N 2 6 1 3 1018.8 1018.6 0.0
18/10:00pm 8.1 5.5 3.4 72 2.1 NW 6 9 3 5 1018.8 1018.6 0.0
18/09:30pm 10.4 7.8 4.1 65 2.9 WNW 7 9 4 5 1018.5 1018.3 0.0
18/09:00pm 11.5 9.2 5.6 67 2.8 WNW 7 11 4 6 1018.6 1018.4 0.0
18/08:30pm 13.0 10.3 5.4 60 3.6 WNW 9 13 5 7 1018.5 1018.3 0.0
18/08:00pm 13.3 10.2 5.7 60 3.7 WNW 11 15 6 8 1018.4 1018.2 0.0
18/07:30pm 13.2 10.9 5.6 60 3.7 W 7 11 4 6 1018.2 1018.0 0.0
18/07:00pm 14.0 11.4 5.9 58 3.9 W 9 11 5 6 1018.0 1017.8 0.0
18/06:30pm 14.6 11.6 5.9 56 4.3 W 11 15 6 8 1017.6 1017.4 0.0
18/06:00pm 15.3 11.9 5.8 53 4.7 W 13 17 7 9 1017.1 1016.9 0.0
18/05:30pm 15.9 13.3 6.3 53 4.8 WNW 9 15 5 8 1016.9 1016.7 0.0
18/05:00pm 14.9 13.9 5.7 54 4.5 CALM 0 0 0 0 1016.5 1016.3 0.0
18/04:30pm 18.8 18.0 6.6 45 6.2 CALM 0 0 0 0 1016.0 1015.8 0.0
18/04:00pm 19.9 19.1 6.6 42 6.8 CALM 0 0 0 0 1016.0 1015.8 0.0
18/03:30pm 20.0 17.8 6.4 41 7.0 WNW 7 13 4 7 1016.0 1015.8 0.0
18/03:00pm 20.2 18.2 6.2 40 7.2 NNW 6 13 3 7 1016.0 1015.8 0.0
18/02:30pm 19.7 17.8 6.8 43 6.7 WSW 6 13 3 7 1016.2 1016.0 0.0
18/02:00pm 19.8 17.8 7.2 44 6.6 WSW 7 15 4 8 1016.3 1016.1 0.0
18/01:30pm 18.9 16.6 7.4 47 6.0 WSW 9 13 5 7 1016.6 1016.4 0.0
18/01:00pm 18.7 16.6 8.1 50 5.6 SSW 9 19 5 10 1016.8 1016.6 0.0
18/12:30pm 18.4 15.9 8.4 52 5.3 SW 11 15 6 8 1017.4 1017.2 0.0
18/12:00pm 17.5 15.6 6.7 49 5.5 SSW 6 13 3 7 1017.9 1017.7 0.0
18/11:30am 17.3 15.9 7.4 52 5.1 WSW 4 11 2 6 1018.5 1018.3 0.0
18/11:00am 15.9 13.8 6.6 54 4.7 SSW 7 11 4 6 1018.8 1018.6 0.0
18/10:30am 14.1 12.2 4.9 54 4.4 WSW 4 9 2 5 1019.1 1019.0 0.0
18/10:00am 11.8 10.5 4.1 59 3.5 CALM 0 0 0 0 1019.3 1019.2 0.0
18/09:30am 9.4 8.0 3.6 67 2.6 CALM 0 6 0 3 1019.3 1019.2 0.0
18/09:00am 7.1 5.6 3.2 76 1.7 CALM 0 0 0 0 1019.6 1019.4 0.0
18/08:30am 4.8 3.2 2.5 85 1.0 CALM 0 0 0 0 1019.3 1019.2 0.0
18/08:00am 1.4 -0.5 0.5 94 0.3 CALM 0 0 0 0 1019.5 1019.3 0.0
18/07:30am -0.9 -3.3 -3.1 85 0.7 CALM 0 0 0 0 1019.2 1019.1 0.0
18/07:00am -1.3 -3.6 -2.4 92 0.3 CALM 0 0 0 0 1019.0 1018.9 0.0
18/06:30am -0.3 -2.4 -1.0 95 0.2 CALM 0 0 0 0 1018.8 1018.6 0.0
18/06:00am 0.8 -1.5 0.7 99 0.0 NNE 2 9 1 5 1018.4 1018.2 0.0
18/05:30am 0.4 -1.5 0.3 99 0.0 CALM 0 0 0 0 1018.3 1018.1 0.0
18/05:00am -0.1 -2.1 -0.2 99 0.0 CALM 0 0 0 0 1018.0 1017.8 0.0
18/04:30am -0.7 -4.1 -0.8 99 0.0 SW 7 9 4 5 1017.7 1017.5 0.0
18/04:00am 0.3 -1.8 -0.7 93 0.4 CALM 0 0 0 0 1017.4 1017.2 0.0
18/03:30am 2.7 -0.3 1.7 93 0.4 NNE 7 11 4 6 1017.4 1017.2 0.0
18/03:00am 1.6 -0.4 0.0 89 0.6 CALM 0 0 0 0 1017.4 1017.2 0.0
18/02:30am 1.6 -0.4 0.1 90 0.6 CALM 0 0 0 0 1017.5 1017.3 0.0
18/02:00am 2.3 0.6 1.7 96 0.2 CALM 0 0 0 0 1017.7 1017.5 0.0
18/01:30am 2.5 0.7 1.3 92 0.5 CALM 0 0 0 0 1018.1 1017.9 0.0
18/01:00am 2.9 1.1 1.4 90 0.6 CALM 0 0 0 0 1018.3 1018.1 0.0
18/12:30am 3.1 1.3 1.5 89 0.6 CALM 0 0 0 0 1018.5 1018.3 0.0
18/12:00am 3.8 1.9 0.8 81 1.2 CALM 0 0 0 0 1018.6 1018.4 0.0
 
Date/Time
EST
Temp
°C
App
Temp
°C
Dew
Point
°C
Rel
Hum
%
Delta-T
°C
Wind Press
QNH
hPa
Press
MSL
hPa
Rain since
9am
mm
Dir  Spd
km/h
Gust
km/h
Spd
kts
Gust
kts
17/11:30pm 3.8 1.9 0.3 78 1.4 CALM 0 0 0 0 1018.6 1018.4 0.0
17/11:00pm 5.3 3.8 3.0 85 1.0 CALM 0 4 0 2 1018.6 1018.4 0.0
17/10:30pm 3.8 0.3 -1.2 70 1.9 ENE 7 13 4 7 1018.6 1018.4 0.0
17/10:00pm 5.2 2.7 1.3 76 1.6 SSE 4 11 2 6 1018.5 1018.3 0.0
17/09:30pm 5.6 3.3 0.4 69 2.1 SE 2 9 1 5 1018.6 1018.4 0.0
17/09:00pm 8.0 6.2 1.4 63 2.8 CALM 0 0 0 0 1018.6 1018.4 0.0
17/08:30pm 8.4 6.8 2.2 65 2.7 CALM 0 0 0 0 1018.7 1018.5 0.0
17/08:00pm 11.4 8.6 3.4 58 3.6 WNW 7 11 4 6 1018.8 1018.6 0.0
17/07:30pm 11.0 8.2 2.1 54 3.9 W 6 11 3 6 1018.7 1018.5 0.0
17/07:00pm 11.9 8.3 2.9 54 4.0 WNW 11 13 6 7 1018.4 1018.2 0.0
17/06:30pm 11.9 8.7 3.2 55 3.9 W 9 13 5 7 1018.0 1017.8 0.0
17/06:00pm 12.1 8.8 2.6 52 4.2 W 9 11 5 6 1017.7 1017.5 0.0
17/05:30pm 12.8 9.5 2.6 50 4.6 W 9 13 5 7 1017.3 1017.1 0.0
17/05:00pm 14.1 10.5 2.7 46 5.2 W 11 19 6 10 1016.8 1016.6 0.0
17/04:30pm 15.9 11.8 2.3 40 6.2 W 13 24 7 13 1016.5 1016.3 0.0
17/04:00pm 17.0 12.7 1.0 34 7.2 WSW 13 20 7 11 1016.4 1016.2 0.0
17/03:30pm 17.6 12.1 0.7 32 7.6 WSW 19 28 10 15 1016.0 1015.8 0.0
17/03:00pm 18.0 12.3 -0.8 28 8.2 WSW 19 28 10 15 1015.8 1015.6 0.0
17/02:30pm 18.4 12.9 0.5 30 8.1 WSW 19 26 10 14 1015.8 1015.6 0.0
17/02:00pm 18.2 12.1 0.4 30 8.0 SW 22 30 12 16 1015.9 1015.7 0.0
17/01:30pm 17.9 13.5 0.6 31 7.8 W 13 20 7 11 1016.1 1015.9 0.0
17/01:00pm 17.8 12.8 1.3 33 7.5 W 17 24 9 13 1016.3 1016.1 0.0
17/12:30pm 17.4 12.4 1.4 34 7.3 W 17 24 9 13 1016.5 1016.3 0.0
17/12:00pm 16.9 11.8 1.0 34 7.2 WSW 17 24 9 13 1017.1 1016.9 0.0
17/11:30am 16.5 11.9 1.4 36 6.8 WSW 15 24 8 13 1017.7 1017.5 0.0
17/11:00am 15.5 11.0 2.0 40 6.1 WSW 15 26 8 14 1018.2 1018.0 0.0
17/10:30am 15.1 11.2 3.3 45 5.5 W 13 24 7 13 1018.5 1018.3 0.0
17/10:00am 13.6 10.2 3.9 52 4.5 WSW 11 17 6 9 1019.0 1018.9 0.0
17/09:30am 13.0 9.5 3.4 52 4.4 W 11 22 6 12 1019.1 1019.0 0.0
17/09:00am 12.2 8.5 2.6 52 4.3 W 11 17 6 9 1019.0 1018.9 0.0
17/08:30am 10.0 8.6 3.7 65 2.8 CALM 0 0 0 0 1018.6 1018.4 0.0
17/08:00am 7.9 5.3 3.2 72 2.0 SSW 6 9 3 5 1018.4 1018.2 0.0
17/07:30am 9.9 7.1 3.2 63 3.0 NNW 7 13 4 7 1018.2 1018.0 0.0
17/07:00am 8.1 5.3 3.2 71 2.1 NW 7 11 4 6 1018.0 1017.8 0.0
17/06:30am 6.5 5.0 2.8 77 1.6 CALM 0 6 0 3 1017.8 1017.6 0.0
17/06:00am 6.5 4.7 3.3 80 1.4 N 2 6 1 3 1017.5 1017.3 0.0
17/05:30am 7.4 4.7 3.5 76 1.7 W 7 13 4 7 1017.5 1017.3 0.0
17/05:00am 6.0 3.9 3.7 85 1.0 SW 4 7 2 4 1017.1 1016.9 0.0
17/04:30am 7.4 5.9 4.9 84 1.1 WSW 2 7 1 4 1016.7 1016.5 0.0
17/04:00am 8.5 7.4 5.3 80 1.5 CALM 0 0 0 0 1016.6 1016.4 0.0
17/03:30am 7.3 5.9 3.5 77 1.7 CALM 0 0 0 0 1016.7 1016.5 0.0
17/03:00am 9.1 8.0 5.3 77 1.8 CALM 0 0 0 0 1016.7 1016.5 0.0
17/02:30am 10.5 8.0 4.6 67 2.7 WNW 7 9 4 5 1016.8 1016.6 0.0
17/02:00am 11.4 8.6 5.1 65 3.0 W 9 13 5 7 1017.0 1016.8 0.0
17/01:30am 12.0 8.9 5.6 65 3.1 W 11 17 6 9 1017.4 1017.2 0.0
17/01:00am 13.3 10.1 6.9 65 3.2 WNW 13 17 7 9 1017.5 1017.3 0.0
17/12:30am 13.3 11.1 8.0 70 2.7 W 9 17 5 9 1017.4 1017.2 0.0
17/12:00am 12.0 11.2 9.6 85 1.2 NW 4 11 2 6 1017.5 1017.3 0.0
 
Date/Time
EST
Temp
°C
App
Temp
°C
Dew
Point
°C
Rel
Hum
%
Delta-T
°C
Wind Press
QNH
hPa
Press
MSL
hPa
Rain since
9am
mm
Dir  Spd
km/h
Gust
km/h
Spd
kts
Gust
kts
16/11:30pm 10.6 10.2 8.4 86 1.1 CALM 0 0 0 0 1017.8 1017.6 0.0
16/11:00pm 11.2 10.8 8.4 83 1.4 CALM 0 0 0 0 1017.8 1017.6 0.0
16/10:30pm 11.0 10.4 7.3 78 1.8 CALM 0 0 0 0 1018.0 1017.8 0.0
16/10:00pm 12.0 11.1 7.7 75 2.1 SSW 2 7 1 4 1018.0 1017.8 0.0
16/09:30pm 12.6 11.0 7.9 73 2.4 NNW 6 7 3 4 1018.0 1017.8 0.0
16/09:00pm 14.1 13.8 8.5 69 2.9 CALM 0 0 0 0 1018.1 1017.9 0.0
16/08:30pm 15.6 14.3 9.3 66 3.3 W 6 9 3 5 1018.2 1018.0 0.0
16/08:00pm 16.5 14.5 8.7 60 4.1 W 9 13 5 7 1018.1 1017.9 0.0
16/07:30pm 16.5 14.9 8.7 60 4.1 W 7 11 4 6 1017.7 1017.5 0.0
16/07:00pm 16.9 15.6 9.3 61 4.0 W 6 9 3 5 1017.6 1017.4 0.0
16/06:30pm 16.4 15.6 9.6 64 3.6 W 4 9 2 5 1017.4 1017.2 0.0
16/06:00pm 17.2 15.6 8.6 57 4.5 WSW 7 13 4 7 1016.5 1016.3 0.0
16/05:30pm 18.8 16.9 9.0 53 5.2 WSW 9 17 5 9 1016.5 1016.3 0.0
16/05:00pm 19.1 18.9 11.7 62 4.2 W 4 7 2 4 1016.3 1016.1 0.0
16/04:30pm 19.8 19.1 11.3 58 4.8 WNW 6 9 3 5 1016.4 1016.2 0.0
16/04:00pm 20.5 19.6 11.4 56 5.1 NW 7 11 4 6 1016.3 1016.1 0.0
16/03:30pm 21.1 20.0 10.6 51 5.9 WSW 7 11 4 6 1016.1 1015.9 0.0
16/03:00pm 21.0 19.7 11.1 53 5.6 WSW 9 17 5 9 1016.0 1015.8 0.0
16/02:30pm 20.5 19.2 11.4 56 5.1 W 9 17 5 9 1016.3 1016.1 0.0
16/02:00pm 20.9 19.7 11.5 55 5.3 WNW 9 15 5 8 1016.5 1016.3 0.0
16/01:30pm 20.3 18.2 11.2 56 5.1 W 13 19 7 10 1017.1 1016.9 0.0
16/01:00pm 19.9 17.6 11.9 60 4.5 WNW 15 20 8 11 1017.7 1017.5 0.0
16/12:30pm 20.0 19.1 13.7 67 3.7 WNW 11 17 6 9 1018.1 1017.9 0.0
16/12:00pm 19.0 18.7 14.3 74 2.8 W 9 15 5 8 1018.7 1018.5 0.0
16/11:30am 18.6 18.3 15.5 82 1.9 SW 11 15 6 8 1019.6 1019.4 0.0
16/11:00am 18.4 18.2 14.7 79 2.2 W 9 13 5 7 1019.8 1019.6 0.0
16/10:30am 17.3 17.8 14.9 86 1.4 SSE 6 9 3 5 1020.0 1019.8 0.0
16/10:00am 16.8 17.8 15.3 91 0.9 SE 4 7 2 4 1020.2 1020.0 0.0
16/09:30am 15.8 17.5 15.3 97 0.3 CALM 0 6 0 3 1020.4 1020.2 0.0

Latest Capital City Observations: Canberra | Sydney | Melbourne | Brisbane | Adelaide | Perth | Hobart | Darwin

Other formats

Comma delimited format used in spreadsheet applications
http://www.bom.gov.au/fwo/IDQ60901/IDQ60901.94555.axf

JavaScript Object Notation format (JSON) in row-major order
http://www.bom.gov.au/fwo/IDQ60901/IDQ60901.94555.json

Data quality

Most of these data are generated automatically and are frequently updated. Quality checks on data are not normally performed. It is possible for incorrect values to appear. Refer to information at About Latest Weather Observations and please check the disclaimer before using these data.